createdAt,value
2022-08-11T00:01:15.085Z,2.05
2022-08-11T00:03:45.794Z,1.80
2022-08-11T00:06:14.307Z,1.60
2022-08-11T00:08:41.711Z,1.38
2022-08-11T00:11:09.258Z,1.33
2022-08-11T00:13:43.214Z,1.70
2022-08-11T00:16:27.947Z,1.63
2022-08-11T00:18:55.811Z,1.88
2022-08-11T00:22:02.068Z,2.05
2022-08-11T00:24:10.024Z,1.60
2022-08-11T00:26:36.964Z,1.40
2022-08-11T00:29:10.646Z,1.60
2022-08-11T00:31:37.340Z,1.70
2022-08-11T00:34:04.757Z,1.83
2022-08-11T00:36:47.219Z,1.77
2022-08-11T00:39:14.007Z,1.60
2022-08-11T00:41:45.175Z,1.88
2022-08-11T00:44:17.458Z,1.98
2022-08-11T00:46:59.612Z,1.65
2022-08-11T00:49:33.966Z,1.70
2022-08-11T00:52:10.217Z,2.03
2022-08-11T00:54:39.434Z,1.70
2022-08-11T00:57:37.591Z,1.45
2022-08-11T01:00:23.956Z,1.77
2022-08-11T01:03:06.598Z,1.77
2022-08-11T01:05:45.170Z,1.60
2022-08-11T01:08:38.179Z,1.52
2022-08-11T01:11:17.556Z,1.90
2022-08-11T01:13:55.672Z,1.60
2022-08-11T01:16:37.449Z,1.88
2022-08-11T01:19:03.799Z,1.98
2022-08-11T01:21:49.627Z,1.73
2022-08-11T01:24:15.971Z,1.83
2022-08-11T01:27:18.930Z,1.90
2022-08-11T01:30:01.270Z,2.22
2022-08-11T01:32:36.986Z,1.88
2022-08-11T01:35:15.896Z,1.60
2022-08-11T01:37:57.614Z,2.00
2022-08-11T01:40:38.871Z,2.03
2022-08-11T01:43:36.837Z,1.77
2022-08-11T01:46:20.727Z,1.92
2022-08-11T01:48:59.376Z,2.00
2022-08-11T01:51:34.078Z,1.92
2022-08-11T01:54:12.465Z,2.00
2022-08-11T01:56:57.093Z,2.10
2022-08-11T01:59:25.936Z,2.30
2022-08-11T02:02:21.836Z,1.90
2022-08-11T02:05:05.365Z,2.22
2022-08-11T02:07:55.511Z,2.25
2022-08-11T02:10:50.609Z,1.90
2022-08-11T02:13:36.840Z,2.13
2022-08-11T02:16:08.070Z,1.90
2022-08-11T02:18:55.945Z,2.67
2022-08-11T02:21:45.846Z,2.00
2022-08-11T02:24:16.956Z,2.40
2022-08-11T02:26:55.869Z,2.00
2022-08-11T02:29:29.781Z,1.70
2022-08-11T02:32:38.482Z,2.53
2022-08-11T02:35:11.141Z,2.03
2022-08-11T02:37:45.206Z,1.92
2022-08-11T02:40:17.604Z,2.30
2022-08-11T02:42:47.103Z,2.00
2022-08-11T02:45:31.191Z,1.88
2022-08-11T02:48:16.569Z,2.53
2022-08-11T02:50:49.395Z,2.03
2022-08-11T02:53:36.771Z,2.22
2022-08-11T02:56:08.738Z,2.45
2022-08-11T02:59:09.455Z,2.30
2022-08-11T03:01:41.269Z,2.15
2022-08-11T03:04:11.082Z,2.53
2022-08-11T03:06:57.784Z,1.92
2022-08-11T03:09:40.551Z,2.03
2022-08-11T03:12:32.607Z,2.20
2022-08-11T03:15:20.483Z,2.30
2022-08-11T03:18:04.009Z,2.38
2022-08-11T03:20:38.182Z,2.10
2022-08-11T03:23:25.686Z,2.25
2022-08-11T03:25:58.774Z,2.00
2022-08-11T03:28:31.297Z,2.33
2022-08-11T03:31:19.954Z,2.20
2022-08-11T03:34:08.038Z,2.80
2022-08-11T03:37:14.881Z,2.53
2022-08-11T03:39:56.834Z,2.40
2022-08-11T03:42:38.831Z,2.30
2022-08-11T03:45:24.249Z,2.42
2022-08-11T03:47:58.012Z,2.60
2022-08-11T03:50:50.733Z,2.55
2022-08-11T03:53:39.817Z,2.70
2022-08-11T03:56:06.237Z,2.47
2022-08-11T03:58:53.614Z,2.17
2022-08-11T04:01:35.546Z,3.00
2022-08-11T04:04:21.218Z,2.50
2022-08-11T04:07:02.446Z,2.67
2022-08-11T04:12:36.328Z,2.72
2022-08-11T04:15:40.676Z,2.90
2022-08-11T04:18:26.054Z,2.97
2022-08-11T04:21:03.097Z,3.25
2022-08-11T04:24:36.255Z,2.53
2022-08-11T04:26:34.493Z,2.50
2022-08-11T04:29:20.754Z,2.58
2022-08-11T04:32:05.841Z,2.65
2022-08-11T04:34:44.838Z,2.78
2022-08-11T04:37:34.743Z,2.90
2022-08-11T04:40:20.205Z,3.08
2022-08-11T04:43:20.912Z,2.63
2022-08-11T04:46:06.543Z,2.60
2022-08-11T04:49:12.539Z,2.20
2022-08-11T04:52:25.118Z,3.50
2022-08-11T04:55:32.805Z,3.30
2022-08-11T04:58:31.166Z,3.33
2022-08-11T05:01:37.503Z,4.15
2022-08-11T05:04:28.821Z,3.53
2022-08-11T05:07:00.974Z,3.25
2022-08-11T05:09:34.697Z,3.70
2022-08-11T05:12:02.000Z,3.03
2022-08-11T05:14:59.579Z,3.20
2022-08-11T05:18:23.585Z,3.53
2022-08-11T05:21:10.551Z,3.65
2022-08-11T05:24:02.120Z,3.80
2022-08-11T05:26:49.758Z,3.40
2022-08-11T05:29:53.913Z,3.53
2022-08-11T05:32:39.748Z,3.70
2022-08-11T05:35:07.548Z,4.07
2022-08-11T05:37:36.140Z,4.10
2022-08-11T05:40:28.889Z,3.60
2022-08-11T05:43:16.234Z,3.45
2022-08-11T05:46:04.523Z,4.40
2022-08-11T05:48:52.015Z,3.85
2022-08-11T05:51:37.818Z,4.30
2022-08-11T05:54:28.545Z,3.67
2022-08-11T05:57:00.245Z,4.03
2022-08-11T05:59:28.428Z,4.47
2022-08-11T06:02:00.240Z,4.00
2022-08-11T06:04:28.312Z,3.90
2022-08-11T06:07:01.558Z,3.80
2022-08-11T06:09:30.983Z,4.40
2022-08-11T06:12:00.006Z,3.55
2022-08-11T06:14:26.968Z,3.75
2022-08-11T06:16:56.129Z,3.80
2022-08-11T06:19:23.462Z,3.67
2022-08-11T06:21:53.108Z,3.60
2022-08-11T06:24:19.796Z,3.58
2022-08-11T06:27:11.327Z,4.85
2022-08-11T06:29:47.842Z,3.83
2022-08-11T06:32:15.678Z,3.40
2022-08-11T06:34:56.007Z,3.75
2022-08-11T06:37:24.929Z,3.33
2022-08-11T06:39:57.551Z,3.20
2022-08-11T06:42:26.775Z,3.05
2022-08-11T06:45:12.917Z,3.13
2022-08-11T06:47:44.124Z,3.72
2022-08-11T06:50:29.608Z,2.90
2022-08-11T06:52:56.102Z,3.00
2022-08-11T06:55:56.882Z,3.78
2022-08-11T06:58:45.723Z,3.72
2022-08-11T07:01:13.717Z,3.03
2022-08-11T07:03:43.852Z,2.53
2022-08-11T07:06:10.272Z,3.17
2022-08-11T07:09:25.568Z,2.88
2022-08-11T07:12:31.576Z,3.08
2022-08-11T07:15:19.538Z,2.40
2022-08-11T07:17:49.805Z,2.97
2022-08-11T07:20:36.272Z,2.65
2022-08-11T07:23:22.927Z,3.33
2022-08-11T07:26:10.495Z,2.83
2022-08-11T07:28:58.174Z,2.70
2022-08-11T07:31:42.108Z,3.10
2022-08-11T07:34:20.552Z,2.70
2022-08-11T07:37:09.264Z,2.40
2022-08-11T07:39:37.224Z,2.70
2022-08-11T07:42:07.863Z,2.58
2022-08-11T07:44:54.587Z,2.80
2022-08-11T07:47:40.396Z,2.80
2022-08-11T07:50:27.327Z,2.55
2022-08-11T07:52:53.998Z,2.13
2022-08-11T07:55:50.145Z,2.60
2022-08-11T07:58:30.082Z,2.47
2022-08-11T08:01:22.548Z,2.70
2022-08-11T08:04:08.245Z,2.53
2022-08-11T08:06:54.448Z,1.92
2022-08-11T08:09:40.099Z,2.22
2022-08-11T08:12:25.846Z,2.42
2022-08-11T08:15:12.406Z,3.00
2022-08-11T08:18:08.513Z,2.50
2022-08-11T08:20:40.714Z,2.40
2022-08-11T08:23:07.695Z,2.33
2022-08-11T08:25:35.234Z,2.45
2022-08-11T08:28:04.433Z,2.28
2022-08-11T08:30:50.739Z,1.90
2022-08-11T08:33:19.352Z,1.98
2022-08-11T08:35:54.056Z,1.95
2022-08-11T08:38:22.099Z,2.17
2022-08-11T08:40:53.405Z,2.10
2022-08-11T08:43:22.428Z,2.22
2022-08-11T08:45:49.021Z,2.28
2022-08-11T08:48:16.650Z,2.10
2022-08-11T08:51:03.478Z,2.10
2022-08-11T08:53:32.749Z,1.50
2022-08-11T08:56:00.441Z,2.10
2022-08-11T08:58:27.154Z,1.90
2022-08-11T09:00:54.683Z,1.80
2022-08-11T09:04:02.856Z,1.90
2022-08-11T09:06:08.279Z,2.10
2022-08-11T09:08:35.264Z,1.80
2022-08-11T09:11:24.122Z,2.45
2022-08-11T09:14:05.017Z,2.00
2022-08-11T09:16:33.237Z,1.60
2022-08-11T09:19:01.232Z,1.95
2022-08-11T09:21:46.252Z,1.83
2022-08-11T09:24:32.988Z,1.98
2022-08-11T09:27:04.279Z,2.10
2022-08-11T09:29:31.733Z,1.83
2022-08-11T09:31:59.061Z,1.55
2022-08-11T09:34:26.478Z,1.80
2022-08-11T09:37:11.826Z,1.80
2022-08-11T09:40:15.708Z,1.85
2022-08-11T09:43:00.744Z,1.70
2022-08-11T09:45:27.355Z,2.10
2022-08-11T09:48:07.324Z,2.10
2022-08-11T09:50:34.737Z,1.73
2022-08-11T09:53:37.468Z,2.35
2022-08-11T09:55:50.833Z,2.03
2022-08-11T09:58:42.871Z,1.90
2022-08-11T10:01:05.315Z,1.70
2022-08-11T10:03:33.328Z,2.00
2022-08-11T10:06:19.925Z,2.00
2022-08-11T10:08:59.861Z,1.80
2022-08-11T10:11:27.225Z,1.90
2022-08-11T10:14:34.429Z,1.95
2022-08-11T10:17:00.901Z,2.03
2022-08-11T10:19:27.487Z,1.80
2022-08-11T10:22:15.360Z,2.10
2022-08-11T10:25:02.566Z,1.88
2022-08-11T10:28:09.089Z,1.85
2022-08-11T10:30:34.639Z,2.20
2022-08-11T10:33:36.575Z,1.60
2022-08-11T10:36:06.082Z,1.80
2022-08-11T10:38:43.396Z,1.83
2022-08-11T10:41:28.758Z,1.77
2022-08-11T10:44:02.786Z,2.10
2022-08-11T10:46:49.488Z,2.05
2022-08-11T10:49:16.126Z,1.77
2022-08-11T10:52:01.340Z,2.65
2022-08-11T10:54:46.681Z,1.77
2022-08-11T10:57:33.471Z,2.30
2022-08-11T11:00:00.596Z,1.95
2022-08-11T11:02:27.508Z,1.52
2022-08-11T11:05:09.287Z,2.20
2022-08-11T11:07:37.965Z,2.17
2022-08-11T11:10:10.700Z,2.20
2022-08-11T11:12:58.859Z,1.67
2022-08-11T11:15:45.655Z,1.73
2022-08-11T11:18:16.249Z,1.85
2022-08-11T11:20:47.702Z,1.67
2022-08-11T11:23:18.588Z,1.90
2022-08-11T11:26:06.827Z,2.05
2022-08-11T11:28:52.267Z,2.10
2022-08-11T11:31:37.542Z,2.05
2022-08-11T11:34:12.403Z,2.33
2022-08-11T11:36:47.906Z,1.80
2022-08-11T11:39:17.102Z,1.70
2022-08-11T11:41:44.006Z,1.73
2022-08-11T11:44:11.857Z,1.80
2022-08-11T11:46:38.889Z,1.80
2022-08-11T11:49:16.646Z,1.95
2022-08-11T11:51:44.398Z,1.92
2022-08-11T11:54:14.057Z,1.90
2022-08-11T11:56:41.546Z,1.80
2022-08-11T11:59:27.424Z,1.98
2022-08-11T12:01:54.639Z,1.90
2022-08-11T12:04:21.591Z,2.03
2022-08-11T12:06:48.484Z,2.13
2022-08-11T12:09:18.516Z,1.67
2022-08-11T12:12:03.915Z,1.90
2022-08-11T12:14:30.843Z,1.50
2022-08-11T12:16:57.578Z,1.67
2022-08-11T12:19:25.582Z,1.73
2022-08-11T12:22:11.326Z,1.90
2022-08-11T12:24:56.702Z,1.70
2022-08-11T12:27:28.597Z,1.80
2022-08-11T12:29:59.651Z,1.60
2022-08-11T12:32:28.897Z,1.75
2022-08-11T12:34:57.247Z,2.17
2022-08-11T12:37:30.209Z,2.10
2022-08-11T12:40:49.418Z,1.98
2022-08-11T12:43:38.290Z,1.60
2022-08-11T12:46:07.403Z,1.88
2022-08-11T12:48:59.298Z,1.60
2022-08-11T12:52:11.767Z,1.95
2022-08-11T12:54:34.232Z,1.95
2022-08-11T12:57:36.772Z,2.13
2022-08-11T13:00:30.644Z,1.83
2022-08-11T13:03:16.167Z,1.75
2022-08-11T13:05:44.724Z,2.20
2022-08-11T13:08:12.129Z,1.60
2022-08-11T13:10:57.502Z,1.63
2022-08-11T13:13:54.989Z,1.67
2022-08-11T13:16:11.129Z,1.63
2022-08-11T13:18:42.347Z,2.22
2022-08-11T13:21:20.065Z,1.58
2022-08-11T13:24:01.985Z,1.80
2022-08-11T13:26:48.122Z,1.58
2022-08-11T13:29:24.561Z,1.80
2022-08-11T13:31:52.478Z,1.80
2022-08-11T13:34:20.442Z,1.90
2022-08-11T13:36:48.923Z,1.58
2022-08-11T13:39:15.653Z,2.10
2022-08-11T13:41:45.089Z,1.50
2022-08-11T13:44:12.999Z,1.40
2022-08-11T13:46:44.446Z,1.48
2022-08-11T13:49:11.270Z,1.58
2022-08-11T13:51:38.578Z,1.70
2022-08-11T13:54:04.969Z,1.27
2022-08-11T13:56:32.357Z,1.63
2022-08-11T13:58:59.546Z,1.30
2022-08-11T14:02:20.156Z,1.30
2022-08-11T14:04:30.646Z,1.58
2022-08-11T14:07:00.838Z,1.90
2022-08-11T14:09:28.884Z,1.60
2022-08-11T14:12:21.151Z,1.30
2022-08-11T14:14:52.394Z,1.23
2022-08-11T14:17:47.795Z,1.50
2022-08-11T14:20:38.693Z,1.50
2022-08-11T14:22:56.514Z,1.45
2022-08-11T14:25:22.934Z,1.70
2022-08-11T14:28:29.527Z,1.55
2022-08-11T14:30:59.052Z,1.42
2022-08-11T14:33:58.677Z,1.67
2022-08-11T14:36:14.814Z,1.52
2022-08-11T14:38:41.962Z,1.67
2022-08-11T14:41:27.715Z,1.77
2022-08-11T14:44:14.815Z,1.70
2022-08-11T14:47:01.695Z,1.70
2022-08-11T14:49:29.076Z,1.60
2022-08-11T14:51:57.661Z,1.63
2022-08-11T14:54:47.754Z,1.63
2022-08-11T14:57:14.221Z,1.13
2022-08-11T14:59:40.935Z,1.35
2022-08-11T15:02:26.353Z,1.40
2022-08-11T15:04:53.397Z,1.50
2022-08-11T15:07:29.445Z,1.25
2022-08-11T15:10:12.647Z,1.30
2022-08-11T15:12:41.951Z,1.27
2022-08-11T15:15:27.994Z,1.30
2022-08-11T15:17:55.924Z,1.00
2022-08-11T15:20:42.278Z,1.55
2022-08-11T15:23:27.668Z,1.17
2022-08-11T15:25:56.533Z,1.17
2022-08-11T15:28:42.764Z,1.17
2022-08-11T15:31:29.191Z,1.58
2022-08-11T15:34:18.018Z,1.20
2022-08-11T15:37:05.468Z,1.27
2022-08-11T15:39:35.649Z,1.20
2022-08-11T15:42:27.105Z,1.02
2022-08-11T15:45:14.852Z,1.27
2022-08-11T15:47:46.008Z,1.00
2022-08-11T15:50:15.229Z,1.13
2022-08-11T15:52:46.155Z,1.65
2022-08-11T15:55:12.816Z,1.80
2022-08-11T15:57:59.045Z,1.73
2022-08-11T16:00:44.831Z,1.35
2022-08-11T16:04:06.743Z,1.15
2022-08-11T16:06:17.046Z,1.40
2022-08-11T16:08:44.626Z,1.27
2022-08-11T16:11:11.409Z,1.17
2022-08-11T16:13:42.072Z,1.35
2022-08-11T16:19:01.472Z,1.45
2022-08-11T16:21:35.801Z,1.10
2022-08-11T16:27:07.289Z,1.30
2022-08-11T16:27:10.333Z,1.30
2022-08-11T16:29:42.903Z,1.30
2022-08-11T16:32:17.152Z,1.20
2022-08-11T16:35:03.738Z,1.30
2022-08-11T16:37:51.621Z,1.33
2022-08-11T16:40:19.413Z,1.55
2022-08-11T16:43:11.043Z,1.27
2022-08-11T16:45:57.919Z,1.27
2022-08-11T16:48:36.415Z,0.80
2022-08-11T16:51:08.320Z,1.10
2022-08-11T16:54:00.218Z,1.10
2022-08-11T16:56:23.327Z,1.00
2022-08-11T16:59:10.413Z,1.30
2022-08-11T17:01:37.556Z,0.98
2022-08-11T17:04:31.438Z,1.30
2022-08-11T17:07:23.772Z,1.13
2022-08-11T17:10:31.685Z,1.95
2022-08-11T17:13:11.621Z,1.27
2022-08-11T17:16:06.732Z,1.15
2022-08-11T17:18:40.667Z,1.15
2022-08-11T17:21:08.128Z,1.25
2022-08-11T17:23:48.107Z,1.23
2022-08-11T17:26:16.396Z,1.03
2022-08-11T17:28:43.057Z,1.10
2022-08-11T17:31:29.346Z,0.75
2022-08-11T17:34:14.609Z,1.02
2022-08-11T17:36:45.511Z,1.10
2022-08-11T17:39:13.186Z,1.23
2022-08-11T17:41:59.234Z,1.95
2022-08-11T17:44:45.049Z,1.25
2022-08-11T17:47:31.251Z,1.17
2022-08-11T17:50:09.548Z,1.00
2022-08-11T17:53:03.433Z,0.77
2022-08-11T17:55:51.520Z,1.10
2022-08-11T17:58:39.281Z,1.00
2022-08-11T18:01:09.437Z,1.10
2022-08-11T18:03:39.871Z,1.20
2022-08-11T18:06:14.832Z,1.15
2022-08-11T18:09:16.270Z,0.90
2022-08-11T18:12:13.033Z,1.10
2022-08-11T18:15:14.203Z,0.93
2022-08-11T18:20:38.214Z,1.20
2022-08-11T18:23:41.740Z,1.20
2022-08-11T18:26:31.125Z,1.00
2022-08-11T18:29:17.752Z,1.20
2022-08-11T18:32:05.462Z,1.27
2022-08-11T18:34:51.816Z,1.42
2022-08-11T18:37:37.994Z,2.70
2022-08-11T18:40:26.788Z,1.58
2022-08-11T18:43:13.192Z,1.30
2022-08-11T18:46:06.989Z,1.35
2022-08-11T18:48:55.005Z,1.70
2022-08-11T18:51:41.139Z,1.50
2022-08-11T18:54:28.788Z,1.20
2022-08-11T18:57:15.830Z,1.60
2022-08-11T19:00:01.452Z,1.58
2022-08-11T19:02:49.458Z,2.20
2022-08-11T19:06:06.089Z,2.15
2022-08-11T19:08:41.942Z,1.60
2022-08-11T19:11:27.932Z,1.58
2022-08-11T19:14:14.400Z,1.65
2022-08-11T19:17:00.112Z,1.55
2022-08-11T19:19:47.480Z,1.83
2022-08-11T19:22:34.567Z,1.77
2022-08-11T19:25:25.172Z,1.80
2022-08-11T19:30:56.397Z,1.50
2022-08-11T19:34:02.525Z,1.63
2022-08-11T19:36:46.983Z,1.60
2022-08-11T19:39:33.045Z,1.50
2022-08-11T19:42:18.968Z,1.50
2022-08-11T19:45:03.939Z,1.77
2022-08-11T19:47:53.311Z,1.63
2022-08-11T19:50:48.674Z,1.80
2022-08-11T19:53:33.842Z,4.40
2022-08-11T19:56:19.535Z,4.18
2022-08-11T19:59:04.766Z,2.20
2022-08-11T20:02:01.387Z,2.05
2022-08-11T20:04:54.822Z,1.80
2022-08-11T20:07:40.679Z,2.22
2022-08-11T20:10:27.719Z,2.30
2022-08-11T20:13:21.209Z,1.90
2022-08-11T20:16:06.960Z,1.85
2022-08-11T20:18:53.008Z,2.50
2022-08-11T20:21:38.955Z,2.22
2022-08-11T20:24:24.332Z,2.70
2022-08-11T20:27:18.629Z,2.33
2022-08-11T20:30:09.521Z,2.65
2022-08-11T20:32:55.147Z,2.10
2022-08-11T20:35:40.566Z,2.20
2022-08-11T20:38:26.925Z,2.47
2022-08-11T20:41:12.560Z,2.30
2022-08-11T20:47:07.219Z,2.55
2022-08-11T20:49:59.688Z,2.25
2022-08-11T20:52:48.536Z,2.13
2022-08-11T20:55:46.172Z,2.30
2022-08-11T20:59:13.351Z,2.25
2022-08-11T21:01:44.242Z,2.03
2022-08-11T21:04:29.340Z,2.00
2022-08-11T21:07:23.611Z,2.28
2022-08-11T21:10:22.801Z,1.90
2022-08-11T21:13:25.317Z,2.10
2022-08-11T21:16:25.334Z,2.45
2022-08-11T21:19:12.247Z,2.30
2022-08-11T21:21:57.589Z,2.03
2022-08-11T21:24:46.963Z,2.25
2022-08-11T21:27:35.003Z,2.22
2022-08-11T21:30:20.923Z,2.28
2022-08-11T21:33:11.298Z,2.72
2022-08-11T21:36:03.435Z,2.85
2022-08-11T21:38:55.517Z,2.40
2022-08-11T21:41:42.578Z,2.10
2022-08-11T21:44:44.956Z,2.25
2022-08-11T21:47:43.566Z,2.63
2022-08-11T21:50:29.495Z,2.55
2022-08-11T21:53:16.270Z,2.15
2022-08-11T21:56:01.693Z,2.10
2022-08-11T21:58:47.447Z,2.25
2022-08-11T22:01:34.553Z,2.30
2022-08-11T22:04:19.719Z,2.33
2022-08-11T22:07:05.037Z,2.28
2022-08-11T22:09:49.984Z,2.08
2022-08-11T22:12:42.582Z,2.20
2022-08-11T22:15:29.661Z,2.10
2022-08-11T22:18:14.871Z,2.35
2022-08-11T22:21:00.058Z,2.50
2022-08-11T22:23:46.115Z,2.22
2022-08-11T22:26:31.838Z,2.00
2022-08-11T22:29:17.072Z,2.20
2022-08-11T22:32:02.097Z,2.10
2022-08-11T22:34:53.446Z,1.77
2022-08-11T22:37:40.702Z,2.55
2022-08-11T22:40:27.088Z,2.25
2022-08-11T22:43:12.070Z,2.80
2022-08-11T22:45:57.195Z,2.20
2022-08-11T22:48:43.709Z,1.90
2022-08-11T22:51:28.778Z,2.28
2022-08-11T22:54:14.093Z,2.58
2022-08-11T22:56:59.282Z,2.60
2022-08-11T22:59:44.855Z,2.38
2022-08-11T23:02:30.041Z,1.90
2022-08-11T23:05:16.292Z,2.50
2022-08-11T23:08:01.629Z,2.42
2022-08-11T23:10:47.087Z,2.03
2022-08-11T23:13:32.615Z,2.00
2022-08-11T23:16:17.737Z,2.78
2022-08-11T23:19:03.506Z,2.15
2022-08-11T23:21:50.029Z,2.40
2022-08-11T23:24:36.260Z,2.30
2022-08-11T23:27:21.390Z,2.10
2022-08-11T23:30:06.622Z,2.47
2022-08-11T23:32:52.027Z,3.25
2022-08-11T23:35:40.148Z,2.90
2022-08-11T23:38:37.171Z,2.53
2022-08-11T23:41:22.650Z,2.38
2022-08-11T23:44:07.938Z,2.50
2022-08-11T23:46:53.880Z,2.33
2022-08-11T23:49:38.999Z,3.08
2022-08-11T23:52:24.536Z,2.40
2022-08-11T23:55:09.702Z,2.67
2022-08-11T23:57:54.650Z,1.98
